Time;durP1;ratioP1;P1;durP2;ratioP2;P2;SDS_P1;SDS_P2;PMS_P1;PMS_P2;Temp;Humidity;BMP_temperature;BMP_pressure;BME280_temperature;BME280_humidity;BME280_pressure;Samples;Min_cycle;Max_cycle;Signal;HPM_P1;HPM_P2
2022/07/05 00:00:08;;;;;;;1.83;0.90;;;20.90;63.20;;;;;;4944896;29;20345;-72
2022/07/05 00:02:34;;;;;;;3.15;1.00;;;20.90;63.40;;;;;;4943344;29;20020;-73
2022/07/05 00:04:59;;;;;;;2.63;1.10;;;20.80;64.70;;;;;;4944798;29;20219;-73
2022/07/05 00:07:25;;;;;;;1.10;0.80;;;20.70;65.30;;;;;;4943559;29;20032;-73
2022/07/05 00:09:54;;;;;;;2.57;0.83;;;20.70;63.70;;;;;;4944858;29;20031;-73
2022/07/05 00:12:22;;;;;;;1.75;1.08;;;20.60;63.00;;;;;;4943522;29;20055;-73
2022/07/05 00:14:48;;;;;;;1.40;0.80;;;20.60;64.30;;;;;;4943592;29;20090;-73
2022/07/05 00:17:14;;;;;;;1.60;0.93;;;20.60;63.90;;;;;;4943703;29;20051;-73
2022/07/05 00:19:40;;;;;;;1.83;1.33;;;20.60;64.40;;;;;;4944112;29;20087;-73
2022/07/05 00:22:05;;;;;;;5.45;1.17;;;20.50;64.80;;;;;;4944002;29;20030;-73
2022/07/05 00:24:31;;;;;;;0.97;0.90;;;20.60;64.50;;;;;;4944805;29;20031;-73
2022/07/05 00:26:57;;;;;;;1.53;1.00;;;20.60;63.60;;;;;;4943164;29;20079;-73
2022/07/05 00:29:23;;;;;;;2.27;1.10;;;20.50;64.20;;;;;;4943888;29;20366;-73
2022/07/05 00:31:48;;;;;;;1.00;0.87;;;20.50;64.20;;;;;;4944047;29;20098;-72
2022/07/05 00:34:14;;;;;;;0.77;0.60;;;20.50;63.40;;;;;;4944777;29;20078;-72
2022/07/05 00:36:40;;;;;;;1.20;1.00;;;20.40;65.30;;;;;;4943012;29;20023;-72
2022/07/05 00:39:06;;;;;;;2.77;1.00;;;20.40;65.50;;;;;;4969997;23;20051;-74
2022/07/05 00:41:32;;;;;;;2.97;1.00;;;20.40;64.60;;;;;;4974890;28;20053;-74
2022/07/05 00:44:04;;;;;;;1.10;1.00;;;20.30;65.70;;;;;;4986614;28;20035;-74
2022/07/05 00:46:29;;;;;;;1.63;1.15;;;20.30;64.40;;;;;;4969739;28;20030;-75
2022/07/05 00:48:57;;;;;;;1.63;1.00;;;20.20;67.00;;;;;;4966748;29;20389;-74
2022/07/05 00:51:22;;;;;;;1.98;1.08;;;20.20;67.00;;;;;;4983989;28;20090;-73
2022/07/05 00:53:49;;;;;;;2.33;1.03;;;20.10;67.90;;;;;;4985541;28;20317;-73
2022/07/05 00:56:15;;;;;;;1.83;1.02;;;20.10;66.50;;;;;;4986813;28;20332;-73
2022/07/05 00:58:41;;;;;;;1.00;0.90;;;20.00;66.00;;;;;;4985586;28;20035;-73
2022/07/05 01:01:08;;;;;;;1.60;1.10;;;20.10;66.90;;;;;;4985566;28;20218;-73
2022/07/05 01:03:33;;;;;;;4.25;1.30;;;20.00;66.10;;;;;;4967305;28;20015;-73
2022/07/05 01:06:01;;;;;;;2.20;1.47;;;20.00;66.50;;;;;;4966901;29;20253;-74
2022/07/05 01:08:26;;;;;;;2.45;1.60;;;20.00;66.60;;;;;;4967273;28;20027;-73
2022/07/05 01:10:52;;;;;;;1.57;1.00;;;20.00;66.80;;;;;;4985260;28;20068;-73
2022/07/05 01:13:18;;;;;;;2.73;1.10;;;19.90;66.30;;;;;;4969137;28;20027;-73
2022/07/05 01:15:44;;;;;;;1.77;1.20;;;19.90;68.30;;;;;;4969219;28;20033;-73
2022/07/05 01:18:09;;;;;;;2.87;1.07;;;19.90;67.00;;;;;;4986275;28;20027;-74
2022/07/05 01:20:36;;;;;;;2.73;1.60;;;19.90;68.30;;;;;;4984980;28;20030;-73
2022/07/05 01:23:04;;;;;;;1.50;1.40;;;19.80;68.10;;;;;;4946591;28;20345;-74
2022/07/05 01:25:30;;;;;;;2.45;1.30;;;19.80;68.50;;;;;;4959680;29;20038;-73
2022/07/05 01:27:57;;;;;;;2.38;1.30;;;19.80;68.40;;;;;;4962470;29;20024;-73
2022/07/05 01:30:24;;;;;;;1.30;1.20;;;19.70;69.30;;;;;;4962303;29;20038;-73
2022/07/05 01:32:49;;;;;;;1.98;1.33;;;19.70;69.70;;;;;;4962110;29;20023;-73
2022/07/05 01:35:23;;;;;;;2.13;1.20;;;19.60;70.00;;;;;;4947580;29;20365;-73
2022/07/05 01:37:49;;;;;;;1.42;1.10;;;19.50;70.30;;;;;;4970010;28;20039;-73
2022/07/05 01:40:16;;;;;;;4.10;1.27;;;19.50;70.70;;;;;;4949185;29;20019;-73
2022/07/05 01:42:41;;;;;;;2.67;1.27;;;19.40;71.40;;;;;;4965069;29;20030;-73
2022/07/05 01:45:08;;;;;;;1.17;1.00;;;19.40;72.70;;;;;;4965856;29;20027;-73
2022/07/05 01:47:44;;;;;;;6.25;1.23;;;19.30;71.90;;;;;;4966093;29;20127;-73
2022/07/05 01:50:10;;;;;;;2.33;1.35;;;19.20;73.70;;;;;;4949587;28;20031;-73
2022/07/05 01:52:36;;;;;;;7.00;1.40;;;19.20;72.70;;;;;;4966304;29;20027;-73
2022/07/05 01:55:03;;;;;;;1.80;1.10;;;19.20;74.00;;;;;;4965215;29;20031;-73
2022/07/05 01:57:29;;;;;;;;;;;19.10;74.10;;;;;;4965756;28;20035;-73
2022/07/05 01:59:54;;;;;;;1.50;1.17;;;19.10;76.60;;;;;;4966071;29;19914;-75
2022/07/05 02:02:20;;;;;;;2.17;1.10;;;19.00;74.30;;;;;;4949047;29;20035;-73
2022/07/05 02:04:46;;;;;;;2.63;1.20;;;18.90;75.60;;;;;;4972803;28;20323;-73
2022/07/05 02:07:12;;;;;;;2.90;1.47;;;18.90;77.00;;;;;;4980312;28;20314;-73
2022/07/05 02:09:37;;;;;;;1.70;1.20;;;18.80;76.20;;;;;;4985064;28;20034;-74
2022/07/05 02:12:04;;;;;;;2.00;1.70;;;18.80;75.80;;;;;;4985461;28;20026;-74
2022/07/05 02:14:30;;;;;;;2.22;2.00;;;18.70;74.70;;;;;;4965293;28;20039;-73
2022/07/05 02:16:56;;;;;;;2.73;1.20;;;18.70;75.30;;;;;;4964911;29;20028;-73
2022/07/05 02:19:22;;;;;;;1.37;1.27;;;18.60;75.30;;;;;;4965898;28;20027;-73
2022/07/05 02:21:47;;;;;;;1.47;1.30;;;18.60;75.60;;;;;;4964244;29;20023;-73
2022/07/05 02:24:13;;;;;;;3.13;1.10;;;18.60;76.20;;;;;;4965322;29;20242;-75
2022/07/05 02:26:39;;;;;;;1.73;1.23;;;18.50;74.60;;;;;;4965838;29;20051;-73
2022/07/05 02:29:04;;;;;;;3.07;1.77;;;18.50;74.10;;;;;;4948535;28;20019;-74
2022/07/05 02:31:31;;;;;;;1.63;1.27;;;18.50;77.40;;;;;;4964754;29;20318;-73
2022/07/05 02:33:56;;;;;;;1.63;1.27;;;18.50;76.60;;;;;;4964416;29;20027;-74
2022/07/05 02:36:22;;;;;;;1.90;1.50;;;18.40;77.00;;;;;;4963840;29;20207;-74
2022/07/05 02:38:48;;;;;;;4.67;1.70;;;18.40;75.30;;;;;;4965194;29;20221;-73
2022/07/05 02:41:14;;;;;;;1.63;1.53;;;18.30;78.20;;;;;;4964526;29;20030;-74
2022/07/05 02:43:39;;;;;;;2.00;1.50;;;18.30;78.90;;;;;;4965168;29;20090;-73
2022/07/05 02:46:06;;;;;;;2.03;1.40;;;18.30;78.70;;;;;;4964394;29;20033;-73
2022/07/05 02:48:34;;;;;;;1.90;1.55;;;18.20;78.40;;;;;;4964208;29;20059;-74
2022/07/05 02:51:00;;;;;;;3.33;1.33;;;18.20;74.60;;;;;;4964326;29;20019;-73
2022/07/05 02:53:25;;;;;;;4.97;1.80;;;18.10;76.20;;;;;;4947114;29;20049;-73
2022/07/05 02:55:51;;;;;;;1.93;1.50;;;18.10;76.60;;;;;;4965249;29;20199;-73
2022/07/05 02:58:17;;;;;;;2.20;1.43;;;18.10;77.50;;;;;;4964999;28;20031;-73
2022/07/05 03:00:45;;;;;;;1.87;1.50;;;18.10;76.30;;;;;;4963881;29;20019;-74
2022/07/05 03:03:11;;;;;;;2.13;1.70;;;18.00;78.00;;;;;;4947715;28;20023;-73
2022/07/05 03:05:37;;;;;;;4.03;2.10;;;18.00;77.50;;;;;;4965140;29;20202;-74
2022/07/05 03:08:03;;;;;;;2.13;1.57;;;18.00;78.80;;;;;;4964787;29;20066;-74
2022/07/05 03:10:28;;;;;;;4.68;2.03;;;18.00;79.20;;;;;;4964962;29;20034;-76
2022/07/05 03:12:54;;;;;;;2.17;1.53;;;18.00;80.40;;;;;;4947580;29;20039;-74
2022/07/05 03:15:20;;;;;;;3.33;1.97;;;18.00;76.70;;;;;;4964897;29;20226;-73
2022/07/05 03:17:46;;;;;;;3.90;1.63;;;17.90;79.20;;;;;;4963786;29;20230;-73
2022/07/05 03:20:11;;;;;;;2.27;1.47;;;17.90;75.60;;;;;;4962739;29;20019;-73
2022/07/05 03:22:37;;;;;;;1.73;1.63;;;17.90;78.90;;;;;;4964637;29;20217;-74
2022/07/05 03:25:05;;;;;;;4.40;2.47;;;17.90;79.80;;;;;;4963757;29;20322;-74
2022/07/05 03:27:30;;;;;;;1.75;1.50;;;17.80;78.70;;;;;;4964621;28;20030;-73
2022/07/05 03:29:56;;;;;;;2.63;2.00;;;17.80;79.00;;;;;;4963558;29;20360;-73
2022/07/05 03:32:22;;;;;;;3.00;1.67;;;17.90;78.30;;;;;;4963490;29;20222;-74
2022/07/05 03:34:47;;;;;;;1.67;1.57;;;17.90;79.20;;;;;;4963773;29;20023;-74
2022/07/05 03:37:14;;;;;;;4.43;1.53;;;17.90;78.40;;;;;;4964354;29;20082;-74
2022/07/05 03:39:39;;;;;;;3.23;1.60;;;17.90;77.70;;;;;;4963052;29;20026;-74
2022/07/05 03:42:05;;;;;;;4.07;2.10;;;17.90;77.50;;;;;;4964380;29;20262;-74
2022/07/05 03:44:32;;;;;;;3.47;1.80;;;17.90;77.30;;;;;;4964270;29;20016;-74
2022/07/05 03:46:59;;;;;;;1.90;1.70;;;17.90;78.10;;;;;;4963767;29;20055;-73
2022/07/05 03:49:25;;;;;;;4.50;1.88;;;17.90;78.10;;;;;;4964336;28;20027;-73
2022/07/05 03:51:51;;;;;;;2.67;1.77;;;17.80;78.20;;;;;;4963326;29;20030;-74
2022/07/05 03:54:16;;;;;;;3.67;1.70;;;17.90;79.40;;;;;;4963191;29;20070;-74
2022/07/05 03:56:42;;;;;;;2.63;1.90;;;17.80;78.50;;;;;;4964127;29;20094;-74
2022/07/05 03:59:08;;;;;;;3.67;1.87;;;17.80;79.10;;;;;;4963633;29;20071;-75
2022/07/05 04:01:34;;;;;;;5.37;2.00;;;17.80;79.40;;;;;;4964378;29;20027;-75
2022/07/05 04:03:59;;;;;;;4.47;2.00;;;17.80;79.40;;;;;;4963088;29;20027;-73
2022/07/05 04:06:25;;;;;;;5.67;2.30;;;17.80;79.40;;;;;;4964262;29;20419;-73
2022/07/05 04:08:51;;;;;;;4.20;1.90;;;17.80;79.90;;;;;;4962406;29;20034;-73
2022/07/05 04:11:17;;;;;;;2.90;2.10;;;17.80;79.60;;;;;;4947127;29;20027;-73
2022/07/05 04:13:43;;;;;;;2.87;2.23;;;17.80;79.70;;;;;;4965179;28;20030;-73
2022/07/05 04:16:09;;;;;;;3.28;1.98;;;17.70;80.80;;;;;;4951147;29;20055;-74
2022/07/05 04:18:35;;;;;;;4.40;2.10;;;17.80;81.60;;;;;;4967981;28;20038;-74
2022/07/05 04:21:01;;;;;;;2.20;1.90;;;17.70;82.30;;;;;;4967140;28;20127;-74
2022/07/05 04:23:27;;;;;;;5.10;2.15;;;17.70;82.00;;;;;;4967774;28;20271;-72
2022/07/05 04:25:53;;;;;;;4.03;2.00;;;17.70;81.10;;;;;;4970180;28;20049;-74
2022/07/05 04:28:19;;;;;;;5.10;2.10;;;17.70;81.80;;;;;;4986090;28;20285;-74
2022/07/05 04:30:44;;;;;;;4.47;2.30;;;17.70;81.10;;;;;;4971307;28;20080;-71
2022/07/05 04:33:10;;;;;;;7.57;2.13;;;17.70;80.80;;;;;;4985142;28;20027;-71
2022/07/05 04:35:36;;;;;;;5.03;2.50;;;17.70;80.90;;;;;;4973918;28;20031;-71
2022/07/05 04:38:02;;;;;;;2.40;1.70;;;17.70;82.50;;;;;;4981054;28;20085;-71
2022/07/05 04:40:27;;;;;;;7.23;2.73;;;17.70;79.60;;;;;;4969743;28;20027;-71
2022/07/05 04:42:53;;;;;;;4.63;2.07;;;17.70;79.70;;;;;;4980028;28;20316;-72
2022/07/05 04:45:19;;;;;;;4.10;2.13;;;17.70;78.90;;;;;;4986854;28;20049;-72
2022/07/05 04:47:45;;;;;;;2.50;1.80;;;17.70;79.60;;;;;;4986893;28;20030;-71
2022/07/05 04:50:10;;;;;;;3.63;2.10;;;17.70;80.40;;;;;;4981911;28;20026;-73
2022/07/05 04:52:36;;;;;;;7.43;2.17;;;17.70;81.00;;;;;;4978352;28;20066;-71
2022/07/05 04:55:03;;;;;;;3.57;1.90;;;17.80;81.00;;;;;;4980554;28;20037;-71
2022/07/05 04:57:41;;;;;;;4.05;1.90;;;17.80;80.00;;;;;;4982821;28;20033;-72
2022/07/05 05:00:09;;;;;;;3.70;1.48;;;17.80;81.30;;;;;;4977223;28;20026;-71
2022/07/05 05:02:35;;;;;;;3.13;1.90;;;17.90;80.60;;;;;;4966921;28;20133;-71
2022/07/05 05:05:00;;;;;;;1.90;1.70;;;17.90;80.50;;;;;;4965989;29;20111;-71
2022/07/05 05:07:26;;;;;;;1.70;1.60;;;18.00;81.50;;;;;;4966049;29;20031;-71
2022/07/05 05:09:52;;;;;;;1.77;1.47;;;18.10;80.90;;;;;;4966274;28;20222;-73
2022/07/05 05:12:18;;;;;;;2.10;1.90;;;18.00;80.90;;;;;;4966633;28;20262;-74
2022/07/05 05:14:44;;;;;;;2.27;2.07;;;18.10;80.70;;;;;;4967725;28;20405;-74
2022/07/05 05:17:10;;;;;;;5.93;2.40;;;18.20;80.20;;;;;;4971017;28;20039;-76
2022/07/05 05:19:35;;;;;;;3.13;2.10;;;18.20;81.60;;;;;;4997394;28;20023;-75
2022/07/05 05:22:01;;;;;;;3.67;2.20;;;18.20;80.20;;;;;;4966699;29;20023;-73
2022/07/05 05:24:27;;;;;;;2.67;1.80;;;18.20;78.90;;;;;;4966559;28;20066;-75
2022/07/05 05:26:53;;;;;;;7.97;1.87;;;18.30;79.30;;;;;;4964621;28;20031;-74
2022/07/05 05:29:20;;;;;;;5.07;2.13;;;18.20;80.80;;;;;;4965868;28;20255;-74
2022/07/05 05:31:46;;;;;;;1.80;1.40;;;18.30;80.40;;;;;;4965368;29;20207;-75
2022/07/05 05:34:12;;;;;;;3.88;1.98;;;18.30;79.20;;;;;;4963254;28;20027;-75
2022/07/05 05:36:38;;;;;;;2.53;1.80;;;18.40;79.50;;;;;;4993383;28;20066;-76
2022/07/05 05:39:04;;;;;;;3.63;1.70;;;18.40;80.60;;;;;;4960212;28;20026;-75
2022/07/05 05:41:29;;;;;;;4.00;3.07;;;18.40;79.20;;;;;;4956013;29;20207;-76
2022/07/05 05:43:55;;;;;;;4.27;2.03;;;18.40;76.20;;;;;;4955241;29;20019;-75
2022/07/05 05:46:21;;;;;;;4.50;1.80;;;18.50;78.40;;;;;;4956003;29;20023;-76
2022/07/05 05:48:47;;;;;;;3.10;1.80;;;18.50;77.90;;;;;;4956363;29;20020;-76
2022/07/05 05:51:13;;;;;;;3.03;1.77;;;18.50;77.30;;;;;;4956233;29;20070;-76
2022/07/05 05:53:38;;;;;;;4.60;1.67;;;18.50;76.80;;;;;;4956540;29;20103;-76
2022/07/05 05:56:04;;;;;;;3.13;1.40;;;18.60;80.00;;;;;;4966087;29;20029;-75
2022/07/05 05:58:30;;;;;;;3.80;1.77;;;18.60;78.90;;;;;;4965610;28;20023;-76
2022/07/05 06:00:56;;;;;;;1.70;1.57;;;18.60;78.50;;;;;;4965244;29;20266;-75
2022/07/05 06:03:24;;;;;;;1.77;1.40;;;18.70;78.20;;;;;;4948429;29;20020;-76
2022/07/05 06:05:50;;;;;;;4.15;1.52;;;18.70;78.50;;;;;;4949425;29;20069;-75
2022/07/05 06:08:16;;;;;;;2.60;1.53;;;18.70;79.00;;;;;;4949253;29;20274;-75
2022/07/05 06:10:42;;;;;;;3.13;1.70;;;18.80;78.20;;;;;;4932845;29;20031;-75
2022/07/05 06:13:09;;;;;;;1.63;1.53;;;18.80;77.90;;;;;;4948837;29;20326;-76
2022/07/05 06:15:35;;;;;;;2.58;1.52;;;18.80;79.10;;;;;;4948590;29;20038;-76
2022/07/05 06:18:01;;;;;;;3.47;1.70;;;18.90;82.40;;;;;;4948514;29;20094;-75
2022/07/05 06:20:29;;;;;;;3.30;1.27;;;18.90;77.60;;;;;;4963430;29;20027;-78
2022/07/05 06:22:55;;;;;;;2.42;1.38;;;18.90;76.80;;;;;;4937504;29;20271;-76
2022/07/05 06:25:21;;;;;;;4.78;1.67;;;19.00;75.00;;;;;;4962766;29;20345;-76
2022/07/05 06:27:51;;;;;;;4.47;1.60;;;19.00;76.40;;;;;;4957622;29;20031;-76
2022/07/05 06:30:19;;;;;;;2.10;1.55;;;19.10;79.50;;;;;;4958543;29;20028;-76
2022/07/05 06:32:45;;;;;;;1.88;1.42;;;19.20;80.60;;;;;;4945100;29;20446;-76
2022/07/05 06:35:11;;;;;;;4.32;1.48;;;19.20;79.60;;;;;;4963516;29;20082;-75
2022/07/05 06:37:44;;;;;;;3.17;1.23;;;19.30;81.20;;;;;;4963360;28;20094;-76
2022/07/05 06:40:12;;;;;;;3.25;1.58;;;19.20;75.80;;;;;;4973424;23;20311;-75
2022/07/05 06:42:38;;;;;;;1.88;1.40;;;19.30;78.00;;;;;;4937927;29;20023;-75
2022/07/05 06:45:08;;;;;;;2.30;1.70;;;19.40;81.30;;;;;;4945056;29;20047;-75
2022/07/05 06:47:33;;;;;;;2.97;1.60;;;19.40;80.70;;;;;;4945054;29;20038;-75
2022/07/05 06:49:59;;;;;;;5.17;1.50;;;19.40;78.20;;;;;;4944985;29;20031;-75
2022/07/05 06:52:25;;;;;;;1.50;1.37;;;19.40;79.40;;;;;;4929303;29;20031;-75
2022/07/05 06:54:51;;;;;;;1.50;1.40;;;19.50;79.60;;;;;;4944869;29;20031;-75
2022/07/05 06:57:21;;;;;;;2.30;1.50;;;19.50;74.90;;;;;;4960755;29;20136;-75
2022/07/05 06:59:53;;;;;;;6.18;1.40;;;19.60;76.90;;;;;;5080018;28;20433;-75
2022/07/05 07:02:19;;;;;;;5.93;1.60;;;19.60;72.60;;;;;;5055714;28;20025;-74
2022/07/05 07:04:45;;;;;;;3.60;1.40;;;19.70;72.90;;;;;;5055366;28;20032;-74
2022/07/05 07:10:00;;;;;;;5.10;1.50;;;19.80;76.10;;;;;;5039467;28;19911;-74
2022/07/05 07:12:26;;;;;;;6.78;1.88;;;19.90;71.60;;;;;;5043443;28;20081;-74
2022/07/05 07:14:51;;;;;;;2.27;1.30;;;19.90;74.80;;;;;;5054604;28;20085;-74
2022/07/05 07:17:17;;;;;;;3.40;1.50;;;19.90;73.40;;;;;;5039809;28;20017;-74
2022/07/05 07:19:43;;;;;;;3.40;1.70;;;19.90;72.90;;;;;;5047737;28;20038;-75
2022/07/05 07:22:08;;;;;;;1.87;1.33;;;20.00;74.20;;;;;;5038656;28;20037;-75
2022/07/05 07:24:34;;;;;;;3.63;1.60;;;20.00;76.10;;;;;;5037683;28;20250;-76
2022/07/05 07:27:03;;;;;;;6.33;2.03;;;20.00;74.60;;;;;;5039573;28;20030;-75
2022/07/05 07:29:29;;;;;;;2.35;1.60;;;20.00;74.00;;;;;;5038478;28;20228;-75
2022/07/05 07:31:56;;;;;;;;;;;20.10;71.70;;;;;;5055395;28;20100;-75
2022/07/05 07:34:22;;;;;;;4.88;1.80;;;20.10;72.10;;;;;;5038457;28;19905;-76
2022/07/05 07:36:48;;;;;;;4.30;1.33;;;20.20;74.90;;;;;;5039367;28;20033;-75
2022/07/05 07:39:14;;;;;;;1.70;1.55;;;20.20;75.10;;;;;;5021743;28;20014;-75
2022/07/05 07:41:39;;;;;;;2.90;1.40;;;20.30;74.80;;;;;;5039374;28;20236;-75
2022/07/05 07:44:05;;;;;;;2.97;1.50;;;20.30;72.70;;;;;;5057597;28;20317;-75
2022/07/05 07:46:31;;;;;;;3.60;1.60;;;20.40;71.70;;;;;;5041672;28;20028;-75
2022/07/05 07:48:57;;;;;;;3.57;1.60;;;20.40;72.60;;;;;;5041884;28;20299;-75
2022/07/05 07:51:23;;;;;;;3.63;1.17;;;20.50;70.50;;;;;;5038819;28;20060;-75
2022/07/05 07:53:49;;;;;;;4.93;1.60;;;20.60;72.00;;;;;;5038301;28;20033;-75
2022/07/05 07:56:15;;;;;;;3.33;1.83;;;20.70;74.40;;;;;;5039122;28;20539;-76
2022/07/05 07:58:41;;;;;;;2.33;1.77;;;20.70;73.40;;;;;;5038942;28;20049;-75
2022/07/05 08:01:10;;;;;;;1.57;1.47;;;20.80;74.40;;;;;;5051835;28;20040;-75
2022/07/05 08:03:38;;;;;;;5.35;1.52;;;20.90;71.90;;;;;;5057551;28;20017;-75
2022/07/05 08:06:03;;;;;;;4.63;1.50;;;21.00;72.90;;;;;;5057416;28;20048;-75
2022/07/05 08:08:29;;;;;;;2.83;1.23;;;21.00;71.70;;;;;;5057614;28;20476;-75
2022/07/05 08:10:55;;;;;;;3.53;1.37;;;21.00;68.70;;;;;;5033628;28;20029;-75
2022/07/05 08:13:21;;;;;;;4.37;1.13;;;21.10;69.50;;;;;;5024302;28;20032;-75
2022/07/05 08:15:46;;;;;;;2.80;1.40;;;21.20;69.70;;;;;;5037028;28;20056;-76
2022/07/05 08:23:40;;;;;;;2.47;1.30;;;21.30;69.80;;;;;;5032194;28;20383;-75
2022/07/05 08:26:06;;;;;;;4.10;1.37;;;21.30;70.00;;;;;;5040783;28;20018;-75
2022/07/05 08:28:32;;;;;;;1.97;1.40;;;21.40;66.30;;;;;;5040671;28;20225;-75
2022/07/05 08:30:57;;;;;;;3.87;1.93;;;21.50;67.70;;;;;;5025213;28;20227;-76
2022/07/05 08:33:24;;;;;;;1.87;1.40;;;21.50;69.60;;;;;;5026010;28;20221;-75
2022/07/05 08:35:50;;;;;;;3.60;1.45;;;21.50;64.20;;;;;;5026150;28;20064;-75
2022/07/05 08:38:15;;;;;;;1.17;1.03;;;21.70;65.90;;;;;;5040121;28;20037;-76
2022/07/05 08:40:46;;;;;;;3.63;1.50;;;21.70;67.40;;;;;;5023872;28;20038;-75
2022/07/05 08:43:11;;;;;;;2.08;1.10;;;21.80;65.90;;;;;;5023849;28;20144;-75
2022/07/05 08:45:37;;;;;;;2.27;1.17;;;21.80;57.30;;;;;;5009346;28;20320;-76
2022/07/05 08:48:03;;;;;;;1.77;1.03;;;22.00;58.30;;;;;;5027146;28;20075;-75
2022/07/05 08:50:29;;;;;;;2.70;1.08;;;22.00;59.80;;;;;;5010601;28;20366;-75
2022/07/05 08:52:55;;;;;;;1.60;1.20;;;22.00;61.00;;;;;;5037597;28;20034;-76
2022/07/05 08:55:20;;;;;;;1.17;0.90;;;22.10;59.10;;;;;;5040142;28;20033;-76
2022/07/05 08:57:46;;;;;;;2.00;1.13;;;22.20;59.00;;;;;;5022970;28;20029;-75
2022/07/05 09:00:12;;;;;;;3.07;1.17;;;22.30;58.00;;;;;;5039618;28;20316;-76
2022/07/05 09:02:38;;;;;;;2.95;1.80;;;22.40;56.20;;;;;;5024301;28;20264;-76
2022/07/05 09:05:05;;;;;;;2.73;1.17;;;22.60;57.60;;;;;;5038524;28;20018;-76
2022/07/05 09:07:31;;;;;;;1.52;1.13;;;22.70;57.10;;;;;;5023242;28;20029;-76
2022/07/05 09:09:57;;;;;;;4.22;1.10;;;22.70;57.60;;;;;;5005945;28;20084;-76
2022/07/05 09:12:23;;;;;;;2.30;1.20;;;22.70;55.70;;;;;;5006950;28;20057;-76
2022/07/05 09:14:50;;;;;;;1.63;1.00;;;22.70;57.70;;;;;;5038069;28;20026;-76
2022/07/05 09:17:15;;;;;;;4.18;1.10;;;22.70;59.70;;;;;;5023937;28;20022;-76
2022/07/05 09:19:42;;;;;;;1.77;1.43;;;22.80;56.70;;;;;;5038995;28;20216;-76
2022/07/05 09:22:08;;;;;;;2.65;1.10;;;22.90;57.30;;;;;;5038301;28;20026;-76
2022/07/05 09:24:44;;;;;;;2.03;1.70;;;22.90;58.10;;;;;;5038667;28;20101;-76
2022/07/05 09:27:10;;;;;;;1.88;1.10;;;22.90;59.50;;;;;;5038774;28;20331;-76
2022/07/05 09:29:36;;;;;;;2.38;1.50;;;22.90;59.90;;;;;;5024058;28;20048;-76
2022/07/05 09:32:02;;;;;;;4.57;1.52;;;22.90;59.70;;;;;;5038107;28;20030;-76
2022/07/05 09:34:30;;;;;;;2.25;1.00;;;23.00;56.50;;;;;;5023078;28;20071;-76
2022/07/05 09:37:03;;;;;;;0.73;0.70;;;23.10;56.50;;;;;;5021808;28;20029;-76
2022/07/05 09:39:35;;;;;;;4.38;1.20;;;23.10;57.70;;;;;;5023315;28;20100;-76
2022/07/05 09:42:26;;;;;;;1.10;1.00;;;23.20;58.30;;;;;;5023588;28;20037;-76
2022/07/05 09:44:56;;;;;;;2.72;1.13;;;23.20;56.90;;;;;;5022561;28;20022;-77
2022/07/05 09:47:23;;;;;;;1.52;1.00;;;23.20;55.00;;;;;;5038744;28;20312;-76
2022/07/05 09:49:53;;;;;;;1.67;1.00;;;23.20;56.80;;;;;;5038561;28;20320;-76
2022/07/05 09:52:31;;;;;;;2.40;1.20;;;23.20;54.80;;;;;;5022350;28;20029;-77
2022/07/05 09:55:18;;;;;;;1.10;1.00;;;23.20;57.00;;;;;;5023165;28;20259;-76
2022/07/05 09:57:46;;;;;;;2.13;1.13;;;23.20;56.50;;;;;;5022545;28;20057;-76
2022/07/05 10:00:12;;;;;;;2.22;1.40;;;23.20;57.30;;;;;;5022458;28;20056;-76
2022/07/05 10:02:51;;;;;;;4.00;1.23;;;23.20;57.40;;;;;;5022544;28;20040;-76
2022/07/05 10:05:19;;;;;;;2.00;0.98;;;23.40;53.00;;;;;;5037553;28;20104;-76
2022/07/05 10:07:52;;;;;;;4.20;1.77;;;23.50;54.00;;;;;;5022890;28;20053;-76
2022/07/05 10:10:23;;;;;;;2.13;1.02;;;23.50;53.90;;;;;;5022342;28;20025;-76
2022/07/05 10:12:51;;;;;;;1.42;1.17;;;23.60;54.60;;;;;;5021351;28;20028;-76
2022/07/05 10:15:31;;;;;;;1.48;1.35;;;23.70;55.50;;;;;;5022129;28;20097;-76
2022/07/05 10:18:01;;;;;;;3.40;1.25;;;23.70;53.30;;;;;;5038403;28;20225;-76
2022/07/05 10:20:42;;;;;;;2.97;1.38;;;23.70;57.80;;;;;;5006064;28;20025;-76
2022/07/05 10:23:18;;;;;;;1.77;1.00;;;23.60;54.70;;;;;;5020679;28;20340;-76
2022/07/05 10:25:49;;;;;;;1.38;1.00;;;23.60;55.80;;;;;;5021966;28;20028;-76
2022/07/05 10:28:16;;;;;;;1.38;0.93;;;23.60;54.40;;;;;;5021729;28;20041;-76
2022/07/05 10:30:44;;;;;;;1.95;1.27;;;23.70;55.70;;;;;;5021199;28;20236;-76
2022/07/05 10:33:10;;;;;;;1.75;1.20;;;23.70;56.00;;;;;;5005481;28;20048;-76
2022/07/05 10:35:35;;;;;;;1.40;1.20;;;23.70;54.70;;;;;;5005412;28;20292;-76
2022/07/05 10:38:02;;;;;;;3.50;1.13;;;23.80;56.60;;;;;;5037442;28;20018;-76
2022/07/05 10:40:29;;;;;;;4.80;1.20;;;23.80;55.60;;;;;;4988829;28;20587;-76
2022/07/05 10:42:56;;;;;;;2.35;1.10;;;23.80;55.20;;;;;;5022202;28;20032;-76
2022/07/05 10:45:31;;;;;;;1.63;1.02;;;23.80;55.20;;;;;;5005160;28;20112;-76
2022/07/05 10:48:12;;;;;;;4.93;1.20;;;23.90;54.70;;;;;;5021599;28;20026;-76
2022/07/05 10:50:45;;;;;;;1.85;1.13;;;24.00;53.90;;;;;;5022061;28;20018;-76
2022/07/05 10:53:12;;;;;;;1.67;1.13;;;24.10;53.40;;;;;;5037979;28;20026;-76
2022/07/05 10:56:11;;;;;;;3.08;1.10;;;24.00;53.30;;;;;;5004401;28;20088;-76
2022/07/05 10:58:37;;;;;;;1.25;1.00;;;24.10;55.20;;;;;;5037867;28;20040;-76
2022/07/05 11:01:12;;;;;;;1.70;1.30;;;24.10;56.00;;;;;;5022237;28;20312;-76
2022/07/05 11:04:00;;;;;;;1.30;1.20;;;24.20;57.00;;;;;;5022928;28;20040;-76
2022/07/05 11:06:38;;;;;;;1.65;1.35;;;24.20;56.10;;;;;;5006356;28;20017;-76
2022/07/05 11:09:10;;;;;;;3.38;1.30;;;24.40;52.20;;;;;;5022328;28;20029;-76
2022/07/05 11:11:43;;;;;;;2.30;1.20;;;24.50;53.40;;;;;;5022241;28;20321;-76
2022/07/05 11:14:25;;;;;;;1.70;1.17;;;24.60;55.80;;;;;;5020987;28;20213;-76
2022/07/05 11:17:15;;;;;;;4.10;1.38;;;24.60;53.80;;;;;;5022181;28;20194;-76
2022/07/05 11:20:08;;;;;;;1.63;1.23;;;24.70;53.30;;;;;;5037338;28;20089;-76
2022/07/05 11:22:35;;;;;;;1.90;1.10;;;24.80;51.50;;;;;;5006285;28;20037;-76
2022/07/05 11:25:01;;;;;;;2.33;1.13;;;24.70;51.60;;;;;;5022089;28;20014;-76
2022/07/05 11:27:27;;;;;;;2.75;1.40;;;24.70;54.20;;;;;;5022124;28;20094;-76
2022/07/05 11:29:54;;;;;;;2.33;1.10;;;24.60;54.30;;;;;;5037684;28;20026;-76
2022/07/05 11:32:29;;;;;;;3.10;1.20;;;24.60;55.40;;;;;;5036569;28;20026;-76
2022/07/05 11:35:17;;;;;;;4.88;1.50;;;24.50;55.80;;;;;;5035931;28;20026;-76
2022/07/05 11:38:07;;;;;;;1.40;1.10;;;24.50;54.70;;;;;;5022006;28;20025;-76
2022/07/05 11:40:37;;;;;;;1.85;1.13;;;24.80;55.10;;;;;;5004892;28;20037;-76
2022/07/05 11:43:03;;;;;;;2.95;1.30;;;25.00;55.30;;;;;;5020292;28;20022;-76
2022/07/05 11:45:30;;;;;;;2.42;1.00;;;25.10;52.60;;;;;;5039090;28;20064;-76
2022/07/05 11:47:57;;;;;;;;;;;25.30;54.60;;;;;;5024766;28;20033;-76
2022/07/05 11:50:33;;;;;;;3.42;1.08;;;25.40;50.40;;;;;;5025001;28;19906;-76
2022/07/05 11:53:02;;;;;;;3.53;1.58;;;25.50;51.40;;;;;;5040266;28;20018;-76
2022/07/05 11:55:30;;;;;;;4.60;1.13;;;25.50;49.20;;;;;;5025900;28;20113;-76
2022/07/05 11:57:57;;;;;;;2.72;1.55;;;25.60;50.00;;;;;;5024897;28;20034;-76
2022/07/05 12:00:35;;;;;;;3.00;1.55;;;25.70;49.80;;;;;;5040992;28;20217;-76
2022/07/05 12:03:01;;;;;;;2.50;1.35;;;25.80;49.60;;;;;;5040168;28;20026;-76
2022/07/05 12:05:31;;;;;;;3.28;1.15;;;25.90;48.30;;;;;;5023700;28;20018;-76
2022/07/05 12:07:57;;;;;;;1.73;0.98;;;25.80;52.40;;;;;;5025315;28;20060;-76
2022/07/05 12:13:07;;;;;;;0.70;0.70;;;25.80;47.00;;;;;;5025018;28;20343;-76
2022/07/05 12:15:34;;;;;;;5.13;1.20;;;25.90;50.60;;;;;;5040131;28;20028;-76
2022/07/05 12:18:04;;;;;;;1.23;0.90;;;26.00;48.60;;;;;;5041052;28;20093;-76
2022/07/05 12:20:32;;;;;;;5.82;1.63;;;26.20;50.00;;;;;;5039241;28;20135;-76
2022/07/05 12:22:58;;;;;;;2.10;0.82;;;26.20;49.70;;;;;;5025033;28;20025;-75
2022/07/05 12:25:24;;;;;;;2.50;1.00;;;26.10;50.00;;;;;;5023971;28;20029;-76
2022/07/05 12:27:53;;;;;;;1.13;0.90;;;26.20;48.60;;;;;;5024970;28;20049;-76
2022/07/05 12:30:18;;;;;;;1.30;1.00;;;26.20;47.10;;;;;;5040196;28;20030;-76
2022/07/05 12:33:07;;;;;;;2.40;1.08;;;26.30;47.00;;;;;;5023079;28;20224;-75
2022/07/05 12:35:43;;;;;;;2.70;1.30;;;26.40;47.90;;;;;;5040396;28;20050;-75
2022/07/05 12:38:12;;;;;;;2.03;1.17;;;26.60;49.10;;;;;;5039783;28;20021;-74
2022/07/05 12:40:38;;;;;;;5.97;1.25;;;26.70;48.00;;;;;;5045642;23;20044;-77
2022/07/05 12:43:12;;;;;;;2.35;1.15;;;26.90;46.40;;;;;;5031350;28;20329;-75
2022/07/05 12:45:40;;;;;;;1.92;1.30;;;27.10;47.50;;;;;;5026987;28;20093;-75
2022/07/05 12:48:07;;;;;;;2.80;1.10;;;27.10;45.10;;;;;;5009422;28;20022;-75
2022/07/05 12:50:50;;;;;;;4.25;2.65;;;27.20;47.20;;;;;;5023878;28;20041;-75
2022/07/05 12:58:52;;;;;;;2.75;1.10;;;27.70;47.30;;;;;;5009125;28;20049;-75
2022/07/05 13:01:34;;;;;;;4.13;1.30;;;27.90;47.60;;;;;;5023447;28;20028;-75
2022/07/05 13:04:04;;;;;;;1.25;1.15;;;28.10;46.80;;;;;;5006351;28;20014;-75
2022/07/05 13:06:54;;;;;;;4.05;1.15;;;28.30;46.40;;;;;;5023500;28;20053;-73